1899 NOT_NAMED (1899232N18130)


IBTrACS version v04r00. Visit IBTrACS website for data access.
Please direct all questions to the IBTrACS Q and A forum

Storm track - Intensity - Wind Radii - Intensity Data - Source Data - All data

Summary Information

Storm ID 1899232N18130
Start Aug 19 16Z
Landfall Aug 21 21Z, Aug 22 16Z
End Aug 24 04Z
ATCF IDs
Track status Best track data.

Storm track plot

Map of storm track

Intensity plots

No Intensity information for this storm


Radial wind information

No radial wind information for this storm


Position and Intensity Table

BASIN ISO_TIME_________ NATURE LAT LON
degrees north degrees east
WP 1899-08-19 16:00:00 NR 18.30 130.30
WP 18:00:00 NR 18.43 129.78
WP 21:00:00 NR 18.61 129.01
WP 1899-08-20 00:00:00 NR 18.79 128.28
WP 03:00:00 NR 18.95 127.61
WP 04:00:00 NR 19.00 127.40
WP 06:00:00 NR 19.10 127.02
WP 09:00:00 NR 19.24 126.51
WP 12:00:00 NR 19.38 126.05
WP 15:00:00 NR 19.54 125.64
WP 16:00:00 NR 19.60 125.50
WP 18:00:00 NR 19.72 125.23
WP 21:00:00 NR 19.92 124.85
WP 1899-08-21 00:00:00 NR 20.15 124.47
WP 03:00:00 NR 20.41 124.05
WP 04:00:00 NR 20.50 123.90
WP 06:00:00 NR 20.70 123.56
WP 09:00:00 NR 21.02 123.02
WP 12:00:00 NR 21.35 122.43
WP 15:00:00 NR 21.69 121.81
WP 16:00:00 NR 21.80 121.60
WP 18:00:00 NR 22.02 121.18
WP 21:00:00 NR 22.35 120.52
WP 1899-08-22 00:00:00 NR 22.66 119.86
WP 03:00:00 NR 22.92 119.21
WP 04:00:00 NR 23.00 119.00
WP 06:00:00 NR 23.12 118.60
WP 09:00:00 NR 23.26 118.02
WP 12:00:00 NR 23.37 117.46
WP 15:00:00 NR 23.47 116.89
WP 16:00:00 NR 23.50 116.70
WP 18:00:00 NR 23.59 116.29
WP 21:00:00 NR 23.72 115.68
WP 1899-08-23 00:00:00 NR 23.85 115.07
WP 03:00:00 NR 23.97 114.48
WP 04:00:00 NR 24.00 114.30
WP 06:00:00 NR 24.06 113.96
WP 09:00:00 NR 24.15 113.48
WP 12:00:00 NR 24.22 113.02
WP 15:00:00 NR 24.28 112.56
WP 16:00:00 NR 24.30 112.40
WP 18:00:00 NR 24.34 112.07
WP 21:00:00 NR 24.39 111.56
WP 1899-08-24 00:00:00 NR 24.44 111.03
WP 03:00:00 NR 24.49 110.48
WP 04:00:00 NR 24.50 110.30

Source Information

Agency Information
USA
TOKYO
CMA
HKO
NEWDELHI
REUNION
BOM
NADI
WELLINGTON
DS824
TD9636 cons_worldwide_trop_cyclone_18710101-19891231-003:Line=2008
TD9635
NEUMANN
MLC

All available IBTrACS Data

SEASON BASIN SUBBASIN ISO_TIME_________ NATURE LAT LON DIST2LAND LANDFALL IFLAG USA SSHS TD9636 LAT TD9636 LON TD9636 STAGE STORM SPEED STORM DIR
Year degrees north degrees east km km 1 degrees north degrees east kts degrees
1899 WP MM 1899-08-19 16:00:00 NR 18.30 130.30 799 765 __________O___ -1 18.30 130.30 7 15 284
1899 WP MM 18:00:00 NR 18.43 129.78 765 706 __________P___ -1 18.43 129.78 7 15 284
1899 WP MM 21:00:00 NR 18.61 129.01 706 633 __________P___ -1 18.61 129.01 7 15 284
1899 WP MM 1899-08-20 00:00:00 NR 18.79 128.28 633 561 __________P___ -1 18.79 128.28 7 14 284
1899 WP MM 03:00:00 NR 18.95 127.61 561 541 __________P___ -1 18.95 127.61 7 13 284
1899 WP MM 04:00:00 NR 19.00 127.40 541 501 __________O___ -1 19.00 127.40 7 12 285
1899 WP MM 06:00:00 NR 19.10 127.02 501 451 __________P___ -1 19.10 127.02 7 11 286
1899 WP MM 09:00:00 NR 19.24 126.51 451 415 __________P___ -1 19.24 126.51 7 10 287
1899 WP MM 12:00:00 NR 19.38 126.05 415 368 __________P___ -1 19.38 126.05 7 9 290
1899 WP MM 15:00:00 NR 19.54 125.64 368 362 __________P___ -1 19.54 125.64 7 9 293
1899 WP MM 16:00:00 NR 19.60 125.50 362 337 __________O___ -1 19.60 125.50 7 8 296
1899 WP MM 18:00:00 NR 19.72 125.23 337 320 __________P___ -1 19.72 125.23 7 8 298
1899 WP MM 21:00:00 NR 19.92 124.85 320 299 __________P___ -1 19.92 124.85 7 8 301
1899 WP MM 1899-08-21 00:00:00 NR 20.15 124.47 306 290 __________P___ -1 20.15 124.47 7 9 303
1899 WP MM 03:00:00 NR 20.41 124.05 292 286 __________P___ -1 20.41 124.05 7 10 303
1899 WP MM 04:00:00 NR 20.50 123.90 288 282 __________O___ -1 20.50 123.90 3 11 302
1899 WP MM 06:00:00 NR 20.70 123.56 291 239 __________P___ -1 20.70 123.56 3 12 302
1899 WP MM 09:00:00 NR 21.02 123.02 239 164 __________P___ -1 21.02 123.02 3 12 302
1899 WP MM 12:00:00 NR 21.35 122.43 164 95 __________P___ -1 21.35 122.43 3 13 301
1899 WP MM 15:00:00 NR 21.69 121.81 95 73 __________P___ -1 21.69 121.81 3 13 300
1899 WP MM 16:00:00 NR 21.80 121.60 73 30 __________O___ -1 21.80 121.60 4 14 300
1899 WP MM 18:00:00 NR 22.02 121.18 30 0 __________P___ -1 22.02 121.18 4 14 299
1899 WP MM 21:00:00 NR 22.35 120.52 0 0 __________P___ -1 22.35 120.52 4 14 298
1899 WP MM 1899-08-22 00:00:00 NR 22.66 119.86 32 42 __________P___ -1 22.66 119.86 4 13 295
1899 WP MM 03:00:00 NR 22.92 119.21 94 94 __________P___ -1 22.92 119.21 4 13 293
1899 WP MM 04:00:00 NR 23.00 119.00 113 113 __________O___ -1 23.00 119.00 4 12 289
1899 WP MM 06:00:00 NR 23.12 118.60 121 60 __________P___ -1 23.12 118.60 4 11 286
1899 WP MM 09:00:00 NR 23.26 118.02 60 33 __________P___ -1 23.26 118.02 4 11 283
1899 WP MM 12:00:00 NR 23.37 117.46 35 10 __________P___ -1 23.37 117.46 4 11 281
1899 WP MM 15:00:00 NR 23.47 116.89 10 0 __________P___ -1 23.47 116.89 4 11 281
1899 WP MM 16:00:00 NR 23.50 116.70 0 0 __________O___ -1 23.50 116.70 4 11 283
1899 WP MM 18:00:00 NR 23.59 116.29 0 0 __________P___ -1 23.59 116.29 4 12 283
1899 WP MM 21:00:00 NR 23.72 115.68 0 0 __________P___ -1 23.72 115.68 4 12 283
1899 WP MM 1899-08-23 00:00:00 NR 23.85 115.07 0 0 __________P___ -1 23.85 115.07 4 11 283
1899 WP MM 03:00:00 NR 23.97 114.48 0 0 __________P___ -1 23.97 114.48 4 11 282
1899 WP MM 04:00:00 NR 24.00 114.30 0 0 __________O___ -1 24.00 114.30 4 10 282
1899 WP MM 06:00:00 NR 24.06 113.96 0 0 __________P___ -1 24.06 113.96 4 9 281
1899 WP MM 09:00:00 NR 24.15 113.48 0 0 __________P___ -1 24.15 113.48 4 9 280
1899 WP MM 12:00:00 NR 24.22 113.02 0 0 __________P___ -1 24.22 113.02 4 9 279
1899 WP MM 15:00:00 NR 24.28 112.56 0 0 __________P___ -1 24.28 112.56 4 9 278
1899 WP MM 16:00:00 NR 24.30 112.40 0 0 __________O___ -1 24.30 112.40 4 9 277
1899 WP MM 18:00:00 NR 24.34 112.07 0 0 __________P___ -1 24.34 112.07 4 9 277
1899 WP MM 21:00:00 NR 24.39 111.56 0 0 __________P___ -1 24.39 111.56 4 10 276
1899 WP MM 1899-08-24 00:00:00 NR 24.44 111.03 0 0 __________P___ -1 24.44 111.03 4 10 276
1899 WP MM 03:00:00 NR 24.49 110.48 0 0 __________P___ -1 24.49 110.48 4 10 275
1899 WP MM 04:00:00 NR 24.50 110.30 0 __________O___ -1 24.50 110.30 7 10 275